sensor_id;sensor_type;location;lat;lon;timestamp;temperature;humidity
68177;DHT22;56478;50.982;7.032;2024-02-26T00:02:16;9.03;68.72
68177;DHT22;56478;50.982;7.032;2024-02-26T00:04:41;9.00;69.66
68177;DHT22;56478;50.982;7.032;2024-02-26T00:07:07;8.91;70.07
68177;DHT22;56478;50.982;7.032;2024-02-26T00:09:33;9.00;67.48
68177;DHT22;56478;50.982;7.032;2024-02-26T00:12:04;8.91;68.63
68177;DHT22;56478;50.982;7.032;2024-02-26T00:14:30;8.85;68.24
68177;DHT22;56478;50.982;7.032;2024-02-26T00:16:56;8.83;71.49
68177;DHT22;56478;50.982;7.032;2024-02-26T00:19:24;8.76;71.87
68177;DHT22;56478;50.982;7.032;2024-02-26T00:21:50;8.72;71.33
68177;DHT22;56478;50.982;7.032;2024-02-26T00:24:15;8.70;72.58
68177;DHT22;56478;50.982;7.032;2024-02-26T00:26:41;8.73;73.98
68177;DHT22;56478;50.982;7.032;2024-02-26T00:29:06;8.72;73.66
68177;DHT22;56478;50.982;7.032;2024-02-26T00:31:32;8.76;72.02
68177;DHT22;56478;50.982;7.032;2024-02-26T00:33:58;8.73;72.66
68177;DHT22;56478;50.982;7.032;2024-02-26T00:36:23;8.72;72.62
68177;DHT22;56478;50.982;7.032;2024-02-26T00:38:49;8.70;73.20
68177;DHT22;56478;50.982;7.032;2024-02-26T00:41:18;8.76;72.09
68177;DHT22;56478;50.982;7.032;2024-02-26T00:43:44;8.66;72.80
68177;DHT22;56478;50.982;7.032;2024-02-26T00:46:09;8.65;72.48
68177;DHT22;56478;50.982;7.032;2024-02-26T00:48:35;8.56;73.63
68177;DHT22;56478;50.982;7.032;2024-02-26T00:51:01;8.52;72.58
68177;DHT22;56478;50.982;7.032;2024-02-26T00:53:26;8.46;72.93
68177;DHT22;56478;50.982;7.032;2024-02-26T00:55:53;8.49;73.81
68177;DHT22;56478;50.982;7.032;2024-02-26T00:58:19;8.55;73.93
68177;DHT22;56478;50.982;7.032;2024-02-26T01:00:45;8.55;73.82
68177;DHT22;56478;50.982;7.032;2024-02-26T01:03:10;8.60;72.77
68177;DHT22;56478;50.982;7.032;2024-02-26T01:05:36;8.65;74.56
68177;DHT22;56478;50.982;7.032;2024-02-26T01:08:04;8.67;72.95
68177;DHT22;56478;50.982;7.032;2024-02-26T01:10:29;8.53;73.56
68177;DHT22;56478;50.982;7.032;2024-02-26T01:12:55;8.53;74.69
68177;DHT22;56478;50.982;7.032;2024-02-26T01:15:21;8.56;74.77
68177;DHT22;56478;50.982;7.032;2024-02-26T01:17:50;8.56;73.93
68177;DHT22;56478;50.982;7.032;2024-02-26T01:20:16;8.52;74.90
68177;DHT22;56478;50.982;7.032;2024-02-26T01:22:43;8.42;75.00
68177;DHT22;56478;50.982;7.032;2024-02-26T01:25:09;8.42;75.35
68177;DHT22;56478;50.982;7.032;2024-02-26T01:27:38;8.44;74.83
68177;DHT22;56478;50.982;7.032;2024-02-26T01:30:07;8.48;74.95
68177;DHT22;56478;50.982;7.032;2024-02-26T01:32:32;8.38;75.64
68177;DHT22;56478;50.982;7.032;2024-02-26T01:34:58;8.42;75.07
68177;DHT22;56478;50.982;7.032;2024-02-26T01:37:24;8.41;75.46
68177;DHT22;56478;50.982;7.032;2024-02-26T01:39:49;8.42;74.96
68177;DHT22;56478;50.982;7.032;2024-02-26T01:42:15;8.38;77.13
68177;DHT22;56478;50.982;7.032;2024-02-26T01:44:40;8.46;75.75
68177;DHT22;56478;50.982;7.032;2024-02-26T01:47:10;8.41;75.79
68177;DHT22;56478;50.982;7.032;2024-02-26T01:49:37;8.25;76.79
68177;DHT22;56478;50.982;7.032;2024-02-26T01:52:05;8.22;76.92
68177;DHT22;56478;50.982;7.032;2024-02-26T01:54:31;8.24;77.84
68177;DHT22;56478;50.982;7.032;2024-02-26T01:56:58;8.28;77.43
68177;DHT22;56478;50.982;7.032;2024-02-26T01:59:24;8.20;78.46
68177;DHT22;56478;50.982;7.032;2024-02-26T02:01:55;8.03;78.63
68177;DHT22;56478;50.982;7.032;2024-02-26T02:04:23;8.03;78.53
68177;DHT22;56478;50.982;7.032;2024-02-26T02:06:48;8.10;77.82
68177;DHT22;56478;50.982;7.032;2024-02-26T02:09:15;8.04;78.78
68177;DHT22;56478;50.982;7.032;2024-02-26T02:11:40;8.03;78.41
68177;DHT22;56478;50.982;7.032;2024-02-26T02:14:06;7.98;79.11
68177;DHT22;56478;50.982;7.032;2024-02-26T02:16:32;7.93;79.79
68177;DHT22;56478;50.982;7.032;2024-02-26T02:19:00;8.03;79.44
68177;DHT22;56478;50.982;7.032;2024-02-26T02:21:26;8.01;80.40
68177;DHT22;56478;50.982;7.032;2024-02-26T02:23:51;7.90;80.07
68177;DHT22;56478;50.982;7.032;2024-02-26T02:26:17;7.98;79.93
68177;DHT22;56478;50.982;7.032;2024-02-26T02:28:44;7.85;80.09
68177;DHT22;56478;50.982;7.032;2024-02-26T02:31:10;7.94;79.75
68177;DHT22;56478;50.982;7.032;2024-02-26T02:33:36;7.79;79.90
68177;DHT22;56478;50.982;7.032;2024-02-26T02:36:02;7.79;80.34
68177;DHT22;56478;50.982;7.032;2024-02-26T02:38:28;7.85;80.00
68177;DHT22;56478;50.982;7.032;2024-02-26T02:40:55;7.86;80.64
68177;DHT22;56478;50.982;7.032;2024-02-26T02:43:20;7.90;80.23
68177;DHT22;56478;50.982;7.032;2024-02-26T02:45:46;7.94;80.94
68177;DHT22;56478;50.982;7.032;2024-02-26T02:48:12;7.96;80.44
68177;DHT22;56478;50.982;7.032;2024-02-26T02:50:38;7.94;80.04
68177;DHT22;56478;50.982;7.032;2024-02-26T02:53:04;7.98;80.16
68177;DHT22;56478;50.982;7.032;2024-02-26T02:55:30;7.79;80.37
68177;DHT22;56478;50.982;7.032;2024-02-26T02:57:55;7.89;79.87
68177;DHT22;56478;50.982;7.032;2024-02-26T03:00:21;7.98;80.67
68177;DHT22;56478;50.982;7.032;2024-02-26T03:02:50;7.97;80.27
68177;DHT22;56478;50.982;7.032;2024-02-26T03:05:15;7.91;80.67
68177;DHT22;56478;50.982;7.032;2024-02-26T03:07:41;7.93;79.96
68177;DHT22;56478;50.982;7.032;2024-02-26T03:10:07;7.90;80.60
68177;DHT22;56478;50.982;7.032;2024-02-26T03:12:33;7.91;80.91
68177;DHT22;56478;50.982;7.032;2024-02-26T03:14:59;7.90;80.31
68177;DHT22;56478;50.982;7.032;2024-02-26T03:17:28;7.96;80.89
68177;DHT22;56478;50.982;7.032;2024-02-26T03:19:54;7.94;80.69
68177;DHT22;56478;50.982;7.032;2024-02-26T03:22:19;8.00;80.32
68177;DHT22;56478;50.982;7.032;2024-02-26T03:24:46;7.90;81.33
68177;DHT22;56478;50.982;7.032;2024-02-26T03:27:11;7.86;81.97
68177;DHT22;56478;50.982;7.032;2024-02-26T03:29:37;8.00;80.93
68177;DHT22;56478;50.982;7.032;2024-02-26T03:32:04;7.91;81.88
68177;DHT22;56478;50.982;7.032;2024-02-26T03:34:29;7.87;81.64
68177;DHT22;56478;50.982;7.032;2024-02-26T03:36:56;7.86;82.18
68177;DHT22;56478;50.982;7.032;2024-02-26T03:39:22;7.85;82.07
68177;DHT22;56478;50.982;7.032;2024-02-26T03:41:48;7.91;81.18
68177;DHT22;56478;50.982;7.032;2024-02-26T03:44:14;7.91;81.84
68177;DHT22;56478;50.982;7.032;2024-02-26T03:46:40;7.94;82.13
68177;DHT22;56478;50.982;7.032;2024-02-26T03:49:08;7.87;83.25
68177;DHT22;56478;50.982;7.032;2024-02-26T03:51:34;7.82;82.26
68177;DHT22;56478;50.982;7.032;2024-02-26T03:54:00;7.85;83.31
68177;DHT22;56478;50.982;7.032;2024-02-26T03:56:26;7.86;82.93
68177;DHT22;56478;50.982;7.032;2024-02-26T03:58:52;7.83;83.54
68177;DHT22;56478;50.982;7.032;2024-02-26T04:01:18;7.82;83.53
68177;DHT22;56478;50.982;7.032;2024-02-26T04:03:44;7.93;82.57
68177;DHT22;56478;50.982;7.032;2024-02-26T04:06:10;7.90;83.15
68177;DHT22;56478;50.982;7.032;2024-02-26T04:08:36;7.75;83.74
68177;DHT22;56478;50.982;7.032;2024-02-26T04:11:03;7.73;83.45
68177;DHT22;56478;50.982;7.032;2024-02-26T04:13:36;7.77;83.34
68177;DHT22;56478;50.982;7.032;2024-02-26T04:16:07;7.86;83.63
68177;DHT22;56478;50.982;7.032;2024-02-26T04:18:32;7.85;83.82
68177;DHT22;56478;50.982;7.032;2024-02-26T04:20:58;7.89;83.19
68177;DHT22;56478;50.982;7.032;2024-02-26T04:23:24;7.79;83.73
68177;DHT22;56478;50.982;7.032;2024-02-26T04:25:50;7.79;83.61
68177;DHT22;56478;50.982;7.032;2024-02-26T04:28:19;7.82;83.48
68177;DHT22;56478;50.982;7.032;2024-02-26T04:30:47;7.90;82.96
68177;DHT22;56478;50.982;7.032;2024-02-26T04:33:13;7.83;83.94
68177;DHT22;56478;50.982;7.032;2024-02-26T04:35:39;7.90;83.38
68177;DHT22;56478;50.982;7.032;2024-02-26T04:38:05;7.89;84.15
68177;DHT22;56478;50.982;7.032;2024-02-26T04:40:30;7.85;84.98
68177;DHT22;56478;50.982;7.032;2024-02-26T04:42:56;7.80;85.09
68177;DHT22;56478;50.982;7.032;2024-02-26T04:45:22;7.73;85.43
68177;DHT22;56478;50.982;7.032;2024-02-26T04:47:48;7.75;84.83
68177;DHT22;56478;50.982;7.032;2024-02-26T04:50:14;7.80;85.76
68177;DHT22;56478;50.982;7.032;2024-02-26T04:52:39;7.76;85.93
68177;DHT22;56478;50.982;7.032;2024-02-26T04:55:05;7.72;85.54
68177;DHT22;56478;50.982;7.032;2024-02-26T04:57:31;7.73;85.22
68177;DHT22;56478;50.982;7.032;2024-02-26T04:59:56;7.70;86.17
68177;DHT22;56478;50.982;7.032;2024-02-26T05:02:22;7.73;86.36
68177;DHT22;56478;50.982;7.032;2024-02-26T05:04:48;7.77;86.09
68177;DHT22;56478;50.982;7.032;2024-02-26T05:07:13;7.65;85.86
68177;DHT22;56478;50.982;7.032;2024-02-26T05:09:40;7.73;85.92
68177;DHT22;56478;50.982;7.032;2024-02-26T05:12:07;7.70;86.14
68177;DHT22;56478;50.982;7.032;2024-02-26T05:14:33;7.73;85.40
68177;DHT22;56478;50.982;7.032;2024-02-26T05:16:58;7.77;85.32
68177;DHT22;56478;50.982;7.032;2024-02-26T05:19:24;7.72;85.66
68177;DHT22;56478;50.982;7.032;2024-02-26T05:21:49;7.68;86.05
68177;DHT22;56478;50.982;7.032;2024-02-26T05:24:16;7.63;86.29
68177;DHT22;56478;50.982;7.032;2024-02-26T05:26:45;7.42;86.64
68177;DHT22;56478;50.982;7.032;2024-02-26T05:29:11;7.54;86.88
68177;DHT22;56478;50.982;7.032;2024-02-26T05:31:36;7.48;86.52
68177;DHT22;56478;50.982;7.032;2024-02-26T05:34:02;7.56;86.61
68177;DHT22;56478;50.982;7.032;2024-02-26T05:36:28;7.61;86.81
68177;DHT22;56478;50.982;7.032;2024-02-26T05:38:59;7.48;86.63
68177;DHT22;56478;50.982;7.032;2024-02-26T05:41:25;7.54;86.46
68177;DHT22;56478;50.982;7.032;2024-02-26T05:44:00;7.52;86.83
68177;DHT22;56478;50.982;7.032;2024-02-26T05:46:26;7.52;86.47
68177;DHT22;56478;50.982;7.032;2024-02-26T05:48:52;7.51;87.01
68177;DHT22;56478;50.982;7.032;2024-02-26T05:51:18;7.59;86.48
68177;DHT22;56478;50.982;7.032;2024-02-26T05:53:44;7.56;86.81
68177;DHT22;56478;50.982;7.032;2024-02-26T05:56:10;7.55;87.24
68177;DHT22;56478;50.982;7.032;2024-02-26T05:58:35;7.58;87.51
68177;DHT22;56478;50.982;7.032;2024-02-26T06:01:01;7.59;87.66
68177;DHT22;56478;50.982;7.032;2024-02-26T06:03:27;7.51;87.21
68177;DHT22;56478;50.982;7.032;2024-02-26T06:05:52;7.54;86.92
68177;DHT22;56478;50.982;7.032;2024-02-26T06:08:18;7.49;87.03
68177;DHT22;56478;50.982;7.032;2024-02-26T06:10:44;7.41;87.22
68177;DHT22;56478;50.982;7.032;2024-02-26T06:13:09;7.30;87.32
68177;DHT22;56478;50.982;7.032;2024-02-26T06:15:35;7.25;87.42
68177;DHT22;56478;50.982;7.032;2024-02-26T06:18:01;7.24;87.47
68177;DHT22;56478;50.982;7.032;2024-02-26T06:20:26;7.23;87.55
68177;DHT22;56478;50.982;7.032;2024-02-26T06:22:52;7.32;87.19
68177;DHT22;56478;50.982;7.032;2024-02-26T06:25:17;7.36;87.58
68177;DHT22;56478;50.982;7.032;2024-02-26T06:27:43;7.28;87.64
68177;DHT22;56478;50.982;7.032;2024-02-26T06:30:09;7.31;87.65
68177;DHT22;56478;50.982;7.032;2024-02-26T06:32:39;7.38;86.86
68177;DHT22;56478;50.982;7.032;2024-02-26T06:35:05;7.30;86.71
68177;DHT22;56478;50.982;7.032;2024-02-26T06:37:33;7.21;87.48
68177;DHT22;56478;50.982;7.032;2024-02-26T06:39:59;7.28;86.84
68177;DHT22;56478;50.982;7.032;2024-02-26T06:42:25;7.25;87.08
68177;DHT22;56478;50.982;7.032;2024-02-26T06:44:51;7.27;87.64
68177;DHT22;56478;50.982;7.032;2024-02-26T06:47:16;7.21;88.16
68177;DHT22;56478;50.982;7.032;2024-02-26T06:49:42;7.18;87.50
68177;DHT22;56478;50.982;7.032;2024-02-26T06:52:08;7.15;87.84
68177;DHT22;56478;50.982;7.032;2024-02-26T06:54:34;7.23;87.94
68177;DHT22;56478;50.982;7.032;2024-02-26T06:57:00;7.25;87.79
68177;DHT22;56478;50.982;7.032;2024-02-26T06:59:25;7.35;87.60
68177;DHT22;56478;50.982;7.032;2024-02-26T07:01:51;7.30;87.71
68177;DHT22;56478;50.982;7.032;2024-02-26T07:04:16;7.41;87.20
68177;DHT22;56478;50.982;7.032;2024-02-26T07:06:42;7.45;87.04
68177;DHT22;56478;50.982;7.032;2024-02-26T07:09:09;7.28;87.56
68177;DHT22;56478;50.982;7.032;2024-02-26T07:11:35;7.34;87.58
68177;DHT22;56478;50.982;7.032;2024-02-26T07:14:01;7.38;87.77
68177;DHT22;56478;50.982;7.032;2024-02-26T07:16:26;7.38;87.60
68177;DHT22;56478;50.982;7.032;2024-02-26T07:18:52;7.32;87.61
68177;DHT22;56478;50.982;7.032;2024-02-26T07:21:18;7.34;87.65
68177;DHT22;56478;50.982;7.032;2024-02-26T07:23:43;7.47;87.30
68177;DHT22;56478;50.982;7.032;2024-02-26T07:26:09;7.49;87.10
68177;DHT22;56478;50.982;7.032;2024-02-26T07:28:37;7.51;86.49
68177;DHT22;56478;50.982;7.032;2024-02-26T07:31:02;7.44;87.39
68177;DHT22;56478;50.982;7.032;2024-02-26T07:33:28;7.47;86.87
68177;DHT22;56478;50.982;7.032;2024-02-26T07:35:54;7.48;87.09
68177;DHT22;56478;50.982;7.032;2024-02-26T07:38:19;7.48;87.55
68177;DHT22;56478;50.982;7.032;2024-02-26T07:40:45;7.42;87.06
68177;DHT22;56478;50.982;7.032;2024-02-26T07:43:10;7.38;86.30
68177;DHT22;56478;50.982;7.032;2024-02-26T07:45:36;7.38;86.61
68177;DHT22;56478;50.982;7.032;2024-02-26T07:48:02;7.42;87.18
68177;DHT22;56478;50.982;7.032;2024-02-26T07:50:27;7.44;87.13
68177;DHT22;56478;50.982;7.032;2024-02-26T07:52:53;7.44;86.96
68177;DHT22;56478;50.982;7.032;2024-02-26T07:55:19;7.32;87.30
68177;DHT22;56478;50.982;7.032;2024-02-26T07:57:45;7.35;87.36
68177;DHT22;56478;50.982;7.032;2024-02-26T08:00:11;7.35;87.03
68177;DHT22;56478;50.982;7.032;2024-02-26T08:02:37;7.24;87.56
68177;DHT22;56478;50.982;7.032;2024-02-26T08:05:03;7.31;87.46
68177;DHT22;56478;50.982;7.032;2024-02-26T08:07:28;7.15;88.04
68177;DHT22;56478;50.982;7.032;2024-02-26T08:09:54;7.21;88.11
68177;DHT22;56478;50.982;7.032;2024-02-26T08:12:20;7.28;87.32
68177;DHT22;56478;50.982;7.032;2024-02-26T08:14:45;7.27;87.50
68177;DHT22;56478;50.982;7.032;2024-02-26T08:17:11;7.23;87.41
68177;DHT22;56478;50.982;7.032;2024-02-26T08:19:37;7.25;87.70
68177;DHT22;56478;50.982;7.032;2024-02-26T08:22:02;7.27;87.36
68177;DHT22;56478;50.982;7.032;2024-02-26T08:24:28;7.25;88.06
68177;DHT22;56478;50.982;7.032;2024-02-26T08:26:54;7.32;87.30
68177;DHT22;56478;50.982;7.032;2024-02-26T08:29:19;7.40;88.26
68177;DHT22;56478;50.982;7.032;2024-02-26T08:31:45;7.38;87.68
68177;DHT22;56478;50.982;7.032;2024-02-26T08:34:10;7.34;87.86
68177;DHT22;56478;50.982;7.032;2024-02-26T08:36:36;7.42;87.43
68177;DHT22;56478;50.982;7.032;2024-02-26T08:39:02;7.54;87.83
68177;DHT22;56478;50.982;7.032;2024-02-26T08:41:28;7.47;87.36
68177;DHT22;56478;50.982;7.032;2024-02-26T08:43:53;7.47;87.20
68177;DHT22;56478;50.982;7.032;2024-02-26T08:46:20;7.54;86.88
68177;DHT22;56478;50.982;7.032;2024-02-26T08:48:45;7.56;87.17
68177;DHT22;56478;50.982;7.032;2024-02-26T08:51:11;7.56;86.63
68177;DHT22;56478;50.982;7.032;2024-02-26T08:53:36;7.54;87.17
68177;DHT22;56478;50.982;7.032;2024-02-26T08:56:02;7.58;87.19
68177;DHT22;56478;50.982;7.032;2024-02-26T08:58:28;7.65;87.28
68177;DHT22;56478;50.982;7.032;2024-02-26T09:00:54;7.79;87.39
68177;DHT22;56478;50.982;7.032;2024-02-26T09:03:20;7.75;86.55
68177;DHT22;56478;50.982;7.032;2024-02-26T09:05:46;7.77;86.00
68177;DHT22;56478;50.982;7.032;2024-02-26T09:08:11;7.87;85.34
68177;DHT22;56478;50.982;7.032;2024-02-26T09:10:38;7.77;85.97
68177;DHT22;56478;50.982;7.032;2024-02-26T09:13:04;7.83;85.40
68177;DHT22;56478;50.982;7.032;2024-02-26T09:15:29;7.87;85.43
68177;DHT22;56478;50.982;7.032;2024-02-26T09:17:55;7.83;85.60
68177;DHT22;56478;50.982;7.032;2024-02-26T09:20:21;7.69;86.40
68177;DHT22;56478;50.982;7.032;2024-02-26T09:22:47;7.73;87.29
68177;DHT22;56478;50.982;7.032;2024-02-26T09:25:13;7.79;85.86
68177;DHT22;56478;50.982;7.032;2024-02-26T09:27:41;7.69;87.02
68177;DHT22;56478;50.982;7.032;2024-02-26T09:30:09;7.66;87.53
68177;DHT22;56478;50.982;7.032;2024-02-26T09:32:34;7.65;87.16
68177;DHT22;56478;50.982;7.032;2024-02-26T09:35:00;7.65;86.43
68177;DHT22;56478;50.982;7.032;2024-02-26T09:37:25;7.77;86.56
68177;DHT22;56478;50.982;7.032;2024-02-26T09:39:51;7.77;86.49
68177;DHT22;56478;50.982;7.032;2024-02-26T09:42:18;7.80;86.88
68177;DHT22;56478;50.982;7.032;2024-02-26T09:44:44;7.85;85.24
68177;DHT22;56478;50.982;7.032;2024-02-26T09:47:11;7.89;85.38
68177;DHT22;56478;50.982;7.032;2024-02-26T09:49:39;7.82;86.74
68177;DHT22;56478;50.982;7.032;2024-02-26T09:52:05;7.68;86.40
68177;DHT22;56478;50.982;7.032;2024-02-26T09:54:32;7.75;85.73
68177;DHT22;56478;50.982;7.032;2024-02-26T09:57:00;7.72;86.18
68177;DHT22;56478;50.982;7.032;2024-02-26T09:59:28;7.68;86.57
68177;DHT22;56478;50.982;7.032;2024-02-26T10:01:56;7.80;87.00
68177;DHT22;56478;50.982;7.032;2024-02-26T10:04:23;7.82;87.01
68177;DHT22;56478;50.982;7.032;2024-02-26T10:06:50;7.91;86.69
68177;DHT22;56478;50.982;7.032;2024-02-26T10:09:17;7.87;86.76
68177;DHT22;56478;50.982;7.032;2024-02-26T10:11:43;7.97;86.45
68177;DHT22;56478;50.982;7.032;2024-02-26T10:14:08;7.93;86.46
68177;DHT22;56478;50.982;7.032;2024-02-26T10:16:34;8.04;85.96
68177;DHT22;56478;50.982;7.032;2024-02-26T10:19:00;8.18;85.81
68177;DHT22;56478;50.982;7.032;2024-02-26T10:21:26;8.11;86.33
68177;DHT22;56478;50.982;7.032;2024-02-26T10:23:52;8.11;85.60
68177;DHT22;56478;50.982;7.032;2024-02-26T10:26:17;8.11;84.64
68177;DHT22;56478;50.982;7.032;2024-02-26T10:28:45;8.10;86.07
68177;DHT22;56478;50.982;7.032;2024-02-26T10:31:11;8.21;85.18
68177;DHT22;56478;50.982;7.032;2024-02-26T10:33:39;8.15;85.34
68177;DHT22;56478;50.982;7.032;2024-02-26T10:36:06;8.04;85.29
68177;DHT22;56478;50.982;7.032;2024-02-26T10:38:34;8.05;85.70
68177;DHT22;56478;50.982;7.032;2024-02-26T10:41:02;8.07;86.43
68177;DHT22;56478;50.982;7.032;2024-02-26T10:43:27;8.17;85.68
68177;DHT22;56478;50.982;7.032;2024-02-26T10:45:56;8.11;85.35
68177;DHT22;56478;50.982;7.032;2024-02-26T10:48:22;8.17;86.52
68177;DHT22;56478;50.982;7.032;2024-02-26T10:50:48;8.28;86.82
68177;DHT22;56478;50.982;7.032;2024-02-26T10:53:18;8.41;85.43
68177;DHT22;56478;50.982;7.032;2024-02-26T10:55:57;8.49;85.97
68177;DHT22;56478;50.982;7.032;2024-02-26T10:58:25;8.46;85.45
68177;DHT22;56478;50.982;7.032;2024-02-26T11:00:51;8.48;85.45
68177;DHT22;56478;50.982;7.032;2024-02-26T11:03:18;8.59;84.34
68177;DHT22;56478;50.982;7.032;2024-02-26T11:05:49;8.59;85.37
68177;DHT22;56478;50.982;7.032;2024-02-26T11:08:19;8.65;85.69
68177;DHT22;56478;50.982;7.032;2024-02-26T11:10:50;8.48;84.85
68177;DHT22;56478;50.982;7.032;2024-02-26T11:13:18;8.37;85.67
68177;DHT22;56478;50.982;7.032;2024-02-26T11:15:46;8.55;85.07
68177;DHT22;56478;50.982;7.032;2024-02-26T11:18:13;8.55;84.65
68177;DHT22;56478;50.982;7.032;2024-02-26T11:20:40;8.35;85.88
68177;DHT22;56478;50.982;7.032;2024-02-26T11:23:07;8.49;85.73
68177;DHT22;56478;50.982;7.032;2024-02-26T11:25:32;8.55;85.79
68177;DHT22;56478;50.982;7.032;2024-02-26T11:28:02;8.53;84.86
68177;DHT22;56478;50.982;7.032;2024-02-26T11:30:32;8.49;85.61
68177;DHT22;56478;50.982;7.032;2024-02-26T11:32:59;8.52;85.41
68177;DHT22;56478;50.982;7.032;2024-02-26T11:35:25;8.53;85.93
68177;DHT22;56478;50.982;7.032;2024-02-26T11:37:52;8.69;84.94
68177;DHT22;56478;50.982;7.032;2024-02-26T11:40:18;8.60;84.87
68177;DHT22;56478;50.982;7.032;2024-02-26T11:42:45;8.70;84.96
68177;DHT22;56478;50.982;7.032;2024-02-26T11:48:14;8.70;84.97
68177;DHT22;56478;50.982;7.032;2024-02-26T11:50:46;8.77;85.16
68177;DHT22;56478;50.982;7.032;2024-02-26T11:53:27;8.91;85.55
68177;DHT22;56478;50.982;7.032;2024-02-26T11:59:36;8.97;85.45
68177;DHT22;56478;50.982;7.032;2024-02-26T12:02:02;9.01;85.37
68177;DHT22;56478;50.982;7.032;2024-02-26T12:04:30;9.12;84.55
68177;DHT22;56478;50.982;7.032;2024-02-26T12:07:01;8.98;84.46
68177;DHT22;56478;50.982;7.032;2024-02-26T12:09:38;8.84;84.73
68177;DHT22;56478;50.982;7.032;2024-02-26T12:14:39;9.08;85.62
68177;DHT22;56478;50.982;7.032;2024-02-26T12:17:05;9.18;85.30
68177;DHT22;56478;50.982;7.032;2024-02-26T12:19:36;9.24;85.06
68177;DHT22;56478;50.982;7.032;2024-02-26T12:22:02;9.46;84.21
68177;DHT22;56478;50.982;7.032;2024-02-26T12:24:28;9.45;84.32
68177;DHT22;56478;50.982;7.032;2024-02-26T12:26:53;9.60;84.10
68177;DHT22;56478;50.982;7.032;2024-02-26T12:29:20;9.80;83.78
68177;DHT22;56478;50.982;7.032;2024-02-26T12:31:45;9.49;83.29
68177;DHT22;56478;50.982;7.032;2024-02-26T12:34:12;9.47;84.21
68177;DHT22;56478;50.982;7.032;2024-02-26T12:36:39;9.56;83.85
68177;DHT22;56478;50.982;7.032;2024-02-26T12:39:06;9.36;83.36
68177;DHT22;56478;50.982;7.032;2024-02-26T12:41:33;9.32;84.88
68177;DHT22;56478;50.982;7.032;2024-02-26T12:43:59;9.31;84.08
68177;DHT22;56478;50.982;7.032;2024-02-26T12:46:25;9.28;84.50
68177;DHT22;56478;50.982;7.032;2024-02-26T12:48:51;9.19;84.47
68177;DHT22;56478;50.982;7.032;2024-02-26T12:51:17;9.25;85.24
68177;DHT22;56478;50.982;7.032;2024-02-26T12:53:45;9.39;85.22
68177;DHT22;56478;50.982;7.032;2024-02-26T12:56:11;9.36;84.68
68177;DHT22;56478;50.982;7.032;2024-02-26T12:58:40;9.25;85.01
68177;DHT22;56478;50.982;7.032;2024-02-26T13:01:07;9.45;84.16
68177;DHT22;56478;50.982;7.032;2024-02-26T13:03:34;9.35;83.78
68177;DHT22;56478;50.982;7.032;2024-02-26T13:06:02;9.38;84.00
68177;DHT22;56478;50.982;7.032;2024-02-26T13:08:28;9.50;84.50
68177;DHT22;56478;50.982;7.032;2024-02-26T13:10:53;9.43;83.78
68177;DHT22;56478;50.982;7.032;2024-02-26T13:13:19;9.45;83.23
68177;DHT22;56478;50.982;7.032;2024-02-26T13:15:48;9.50;84.39
68177;DHT22;56478;50.982;7.032;2024-02-26T13:18:14;9.77;83.60
68177;DHT22;56478;50.982;7.032;2024-02-26T13:20:41;9.91;84.09
68177;DHT22;56478;50.982;7.032;2024-02-26T13:23:10;9.94;83.34
68177;DHT22;56478;50.982;7.032;2024-02-26T13:25:37;9.80;83.45
68177;DHT22;56478;50.982;7.032;2024-02-26T13:28:24;9.91;83.74
68177;DHT22;56478;50.982;7.032;2024-02-26T13:30:56;9.83;83.07
68177;DHT22;56478;50.982;7.032;2024-02-26T13:33:26;9.83;83.42
68177;DHT22;56478;50.982;7.032;2024-02-26T13:35:52;9.91;82.93
68177;DHT22;56478;50.982;7.032;2024-02-26T13:38:18;10.01;82.70
68177;DHT22;56478;50.982;7.032;2024-02-26T13:40:44;9.86;83.28
68177;DHT22;56478;50.982;7.032;2024-02-26T13:43:09;9.71;83.68
68177;DHT22;56478;50.982;7.032;2024-02-26T13:45:36;9.74;84.18
68177;DHT22;56478;50.982;7.032;2024-02-26T13:48:07;9.77;84.36
68177;DHT22;56478;50.982;7.032;2024-02-26T13:50:33;9.71;84.25
68177;DHT22;56478;50.982;7.032;2024-02-26T13:52:58;9.73;84.57
68177;DHT22;56478;50.982;7.032;2024-02-26T13:55:27;9.71;83.75
68177;DHT22;56478;50.982;7.032;2024-02-26T13:57:57;9.73;83.35
68177;DHT22;56478;50.982;7.032;2024-02-26T14:00:23;9.73;83.55
68177;DHT22;56478;50.982;7.032;2024-02-26T14:02:50;9.71;83.58
68177;DHT22;56478;50.982;7.032;2024-02-26T14:05:16;9.54;84.29
68177;DHT22;56478;50.982;7.032;2024-02-26T14:07:41;9.62;83.88
68177;DHT22;56478;50.982;7.032;2024-02-26T14:10:08;9.70;83.73
68177;DHT22;56478;50.982;7.032;2024-02-26T14:12:35;9.66;83.91
68177;DHT22;56478;50.982;7.032;2024-02-26T14:15:01;9.70;84.06
68177;DHT22;56478;50.982;7.032;2024-02-26T14:17:30;9.71;83.98
68177;DHT22;56478;50.982;7.032;2024-02-26T14:19:55;9.59;83.35
68177;DHT22;56478;50.982;7.032;2024-02-26T14:22:21;9.63;83.66
68177;DHT22;56478;50.982;7.032;2024-02-26T14:24:46;9.67;84.04
68177;DHT22;56478;50.982;7.032;2024-02-26T14:27:13;9.73;83.42
68177;DHT22;56478;50.982;7.032;2024-02-26T14:29:43;9.77;82.82
68177;DHT22;56478;50.982;7.032;2024-02-26T14:32:09;9.73;83.23
68177;DHT22;56478;50.982;7.032;2024-02-26T14:34:35;9.86;82.93
68177;DHT22;56478;50.982;7.032;2024-02-26T14:37:01;9.91;82.77
68177;DHT22;56478;50.982;7.032;2024-02-26T14:39:28;9.83;83.30
68177;DHT22;56478;50.982;7.032;2024-02-26T14:41:54;10.01;83.56
68177;DHT22;56478;50.982;7.032;2024-02-26T14:44:20;10.09;82.40
68177;DHT22;56478;50.982;7.032;2024-02-26T14:46:46;10.21;82.21
68177;DHT22;56478;50.982;7.032;2024-02-26T14:49:11;10.23;82.03
68177;DHT22;56478;50.982;7.032;2024-02-26T14:51:38;10.26;81.98
68177;DHT22;56478;50.982;7.032;2024-02-26T14:54:03;10.25;81.34
68177;DHT22;56478;50.982;7.032;2024-02-26T14:56:29;10.11;81.43
68177;DHT22;56478;50.982;7.032;2024-02-26T14:58:54;10.16;80.36
68177;DHT22;56478;50.982;7.032;2024-02-26T15:01:20;9.98;81.15
68177;DHT22;56478;50.982;7.032;2024-02-26T15:03:46;9.83;80.67
68177;DHT22;56478;50.982;7.032;2024-02-26T15:06:11;9.71;81.60
68177;DHT22;56478;50.982;7.032;2024-02-26T15:08:37;9.62;82.37
68177;DHT22;56478;50.982;7.032;2024-02-26T15:11:03;9.84;81.31
68177;DHT22;56478;50.982;7.032;2024-02-26T15:13:28;9.74;82.05
68177;DHT22;56478;50.982;7.032;2024-02-26T15:15:54;9.78;81.10
68177;DHT22;56478;50.982;7.032;2024-02-26T15:18:19;9.66;81.65
68177;DHT22;56478;50.982;7.032;2024-02-26T15:20:45;9.59;82.61
68177;DHT22;56478;50.982;7.032;2024-02-26T15:23:11;9.69;82.06
68177;DHT22;56478;50.982;7.032;2024-02-26T15:25:39;9.71;82.38
68177;DHT22;56478;50.982;7.032;2024-02-26T15:28:07;9.67;83.69
68177;DHT22;56478;50.982;7.032;2024-02-26T15:30:32;9.67;84.33
68177;DHT22;56478;50.982;7.032;2024-02-26T15:32:59;9.71;84.36
68177;DHT22;56478;50.982;7.032;2024-02-26T15:35:25;9.78;82.76
68177;DHT22;56478;50.982;7.032;2024-02-26T15:37:51;9.69;84.17
68177;DHT22;56478;50.982;7.032;2024-02-26T15:40:18;9.64;85.90
68177;DHT22;56478;50.982;7.032;2024-02-26T15:42:43;9.59;86.56
68177;DHT22;56478;50.982;7.032;2024-02-26T15:45:09;9.59;85.78
68177;DHT22;56478;50.982;7.032;2024-02-26T15:47:35;9.60;86.73
68177;DHT22;56478;50.982;7.032;2024-02-26T15:50:01;9.63;87.17